XCO weather

Colac Airport
Victoria, Australia

Public forecast

Using degrees Celsius for public forecast. Weather courtesy of forecast.io.

Closest aviation weather report (METAR) to Colac Airport

Closest report is Avalon Airport, 40.1 nm (74.3 km) ENE. Retrieved 2019/10/18 10:30 UTC (0 seconds ago):

YMAV 181030Z AUTO 30011KT 9999 // SCT043 BKN050 OVC073 11/10 Q1013

Closest aviation forecast (TAF) to Colac Airport

Closest forecast is Avalon Airport, 40.1 nm (74.3 km) ENE. Retrieved 2019/10/18 06:33 UTC (4 hours ago):

TAF YMAV 180529Z 1806/1906 30022G40KT 9999 FEW045 BECMG 1807/1808 27015G25KT 9999 -SHRA SCT030 BKN050 FM181000 27012KT 9999 SCT040 FM182200 27016G32KT 9999 -SHRA SCT040 INTER 1808/1811 5000 SHRA SCT010 INTER 1902/1906 5000 SHRA SCT025